sensor_id;sensor_type;location;lat;lon;timestamp;pressure;altitude;pressure_sealevel;temperature;humidity
70930;BME280;58588;48.102;19.682;2023-04-20T00:01:58;99363.63;;;6.46;100.00
70930;BME280;58588;48.102;19.682;2023-04-20T00:05:04;99363.16;;;6.42;100.00
70930;BME280;58588;48.102;19.682;2023-04-20T00:08:06;99361.78;;;6.38;100.00
70930;BME280;58588;48.102;19.682;2023-04-20T00:11:08;99360.47;;;6.42;100.00
70930;BME280;58588;48.102;19.682;2023-04-20T00:14:10;99358.09;;;6.39;100.00
70930;BME280;58588;48.102;19.682;2023-04-20T00:17:12;99364.16;;;6.50;100.00
70930;BME280;58588;48.102;19.682;2023-04-20T00:20:16;99356.31;;;6.56;100.00
70930;BME280;58588;48.102;19.682;2023-04-20T00:23:18;99362.69;;;6.63;100.00
70930;BME280;58588;48.102;19.682;2023-04-20T00:26:20;99365.56;;;6.78;100.00
70930;BME280;58588;48.102;19.682;2023-04-20T00:29:22;99355.19;;;6.83;100.00
70930;BME280;58588;48.102;19.682;2023-04-20T00:32:24;99357.38;;;6.88;100.00
70930;BME280;58588;48.102;19.682;2023-04-20T00:35:29;99360.88;;;6.80;100.00
70930;BME280;58588;48.102;19.682;2023-04-20T00:38:31;99361.00;;;6.54;100.00
70930;BME280;58588;48.102;19.682;2023-04-20T00:41:33;99362.59;;;6.31;100.00
70930;BME280;58588;48.102;19.682;2023-04-20T00:44:35;99368.63;;;6.41;100.00
70930;BME280;58588;48.102;19.682;2023-04-20T00:47:37;99373.25;;;6.23;100.00
70930;BME280;58588;48.102;19.682;2023-04-20T00:50:41;99371.41;;;6.23;100.00
70930;BME280;58588;48.102;19.682;2023-04-20T00:53:43;99367.78;;;6.32;100.00
70930;BME280;58588;48.102;19.682;2023-04-20T00:56:45;99356.94;;;6.42;100.00
70930;BME280;58588;48.102;19.682;2023-04-20T00:59:48;99369.97;;;6.37;100.00
70930;BME280;58588;48.102;19.682;2023-04-20T01:02:50;99356.19;;;6.24;100.00
70930;BME280;58588;48.102;19.682;2023-04-20T01:05:53;99358.88;;;6.24;100.00
70930;BME280;58588;48.102;19.682;2023-04-20T01:08:55;99359.88;;;6.23;100.00
70930;BME280;58588;48.102;19.682;2023-04-20T01:11:58;99356.97;;;6.08;100.00
70930;BME280;58588;48.102;19.682;2023-04-20T01:15:01;99361.78;;;5.96;100.00
70930;BME280;58588;48.102;19.682;2023-04-20T01:18:05;99358.44;;;5.94;100.00
70930;BME280;58588;48.102;19.682;2023-04-20T01:21:08;99357.09;;;5.98;100.00
70930;BME280;58588;48.102;19.682;2023-04-20T01:24:12;99361.97;;;6.03;100.00
70930;BME280;58588;48.102;19.682;2023-04-20T01:27:14;99359.94;;;5.97;100.00
70930;BME280;58588;48.102;19.682;2023-04-20T01:30:17;99356.91;;;5.92;100.00
70930;BME280;58588;48.102;19.682;2023-04-20T01:33:19;99362.13;;;5.75;100.00
70930;BME280;58588;48.102;19.682;2023-04-20T01:36:21;99355.03;;;5.58;100.00
70930;BME280;58588;48.102;19.682;2023-04-20T01:39:24;99357.78;;;5.48;100.00
70930;BME280;58588;48.102;19.682;2023-04-20T01:42:26;99350.91;;;5.46;100.00
70930;BME280;58588;48.102;19.682;2023-04-20T01:45:28;99354.28;;;5.48;100.00
70930;BME280;58588;48.102;19.682;2023-04-20T01:48:31;99356.56;;;5.43;100.00
70930;BME280;58588;48.102;19.682;2023-04-20T01:51:33;99356.63;;;5.51;100.00
70930;BME280;58588;48.102;19.682;2023-04-20T01:54:37;99355.69;;;5.34;100.00
70930;BME280;58588;48.102;19.682;2023-04-20T01:57:39;99355.81;;;5.32;100.00
70930;BME280;58588;48.102;19.682;2023-04-20T02:00:41;99353.88;;;5.17;100.00
70930;BME280;58588;48.102;19.682;2023-04-20T02:03:43;99350.00;;;5.11;100.00
70930;BME280;58588;48.102;19.682;2023-04-20T02:06:45;99358.00;;;5.11;100.00
70930;BME280;58588;48.102;19.682;2023-04-20T02:09:48;99355.84;;;5.15;100.00
70930;BME280;58588;48.102;19.682;2023-04-20T02:12:50;99355.00;;;5.14;100.00
70930;BME280;58588;48.102;19.682;2023-04-20T02:15:53;99355.44;;;5.27;100.00
70930;BME280;58588;48.102;19.682;2023-04-20T02:18:55;99349.97;;;5.29;100.00
70930;BME280;58588;48.102;19.682;2023-04-20T02:21:57;99359.81;;;5.28;100.00
70930;BME280;58588;48.102;19.682;2023-04-20T02:25:01;99350.25;;;5.26;100.00
70930;BME280;58588;48.102;19.682;2023-04-20T02:28:04;99345.25;;;5.05;100.00
70930;BME280;58588;48.102;19.682;2023-04-20T02:31:06;99341.88;;;5.03;100.00
70930;BME280;58588;48.102;19.682;2023-04-20T02:34:08;99339.44;;;4.92;100.00
70930;BME280;58588;48.102;19.682;2023-04-20T02:37:10;99338.09;;;4.88;100.00
70930;BME280;58588;48.102;19.682;2023-04-20T02:40:14;99339.00;;;4.78;100.00
70930;BME280;58588;48.102;19.682;2023-04-20T02:43:16;99339.63;;;4.90;100.00
70930;BME280;58588;48.102;19.682;2023-04-20T02:46:18;99341.88;;;5.03;100.00
70930;BME280;58588;48.102;19.682;2023-04-20T02:49:20;99348.53;;;5.17;100.00
70930;BME280;58588;48.102;19.682;2023-04-20T02:52:23;99352.94;;;5.26;100.00
70930;BME280;58588;48.102;19.682;2023-04-20T02:55:26;99346.03;;;5.41;100.00
70930;BME280;58588;48.102;19.682;2023-04-20T02:58:29;99343.41;;;5.49;100.00
70930;BME280;58588;48.102;19.682;2023-04-20T03:01:31;99351.97;;;5.53;100.00
70930;BME280;58588;48.102;19.682;2023-04-20T03:04:33;99349.59;;;5.50;100.00
70930;BME280;58588;48.102;19.682;2023-04-20T03:07:36;99355.66;;;5.52;100.00
70930;BME280;58588;48.102;19.682;2023-04-20T03:10:39;99343.25;;;5.51;100.00
70930;BME280;58588;48.102;19.682;2023-04-20T03:13:41;99347.47;;;5.53;100.00
70930;BME280;58588;48.102;19.682;2023-04-20T03:16:43;99346.34;;;5.38;100.00
70930;BME280;58588;48.102;19.682;2023-04-20T03:19:45;99352.09;;;5.25;100.00
70930;BME280;58588;48.102;19.682;2023-04-20T03:22:47;99349.63;;;5.06;100.00
70930;BME280;58588;48.102;19.682;2023-04-20T03:25:51;99359.06;;;5.18;100.00
70930;BME280;58588;48.102;19.682;2023-04-20T03:28:53;99357.16;;;5.10;100.00
70930;BME280;58588;48.102;19.682;2023-04-20T03:31:55;99355.25;;;5.03;100.00
70930;BME280;58588;48.102;19.682;2023-04-20T03:34:57;99349.63;;;4.88;100.00
70930;BME280;58588;48.102;19.682;2023-04-20T03:37:59;99355.56;;;5.00;100.00
70930;BME280;58588;48.102;19.682;2023-04-20T03:41:03;99366.09;;;5.01;100.00
70930;BME280;58588;48.102;19.682;2023-04-20T03:44:07;99358.84;;;4.94;100.00
70930;BME280;58588;48.102;19.682;2023-04-20T03:47:09;99372.88;;;4.96;100.00
70930;BME280;58588;48.102;19.682;2023-04-20T03:50:11;99372.72;;;4.79;100.00
70930;BME280;58588;48.102;19.682;2023-04-20T03:53:13;99370.53;;;4.75;100.00
70930;BME280;58588;48.102;19.682;2023-04-20T03:56:17;99367.16;;;4.73;100.00
70930;BME280;58588;48.102;19.682;2023-04-20T03:59:19;99378.44;;;4.67;100.00
70930;BME280;58588;48.102;19.682;2023-04-20T04:02:21;99374.94;;;4.66;100.00
70930;BME280;58588;48.102;19.682;2023-04-20T04:05:24;99375.25;;;4.63;100.00
70930;BME280;58588;48.102;19.682;2023-04-20T04:08:26;99370.31;;;4.68;100.00
70930;BME280;58588;48.102;19.682;2023-04-20T04:11:29;99372.19;;;4.76;100.00
70930;BME280;58588;48.102;19.682;2023-04-20T04:14:32;99369.00;;;4.72;100.00
70930;BME280;58588;48.102;19.682;2023-04-20T04:17:34;99376.31;;;4.70;100.00
70930;BME280;58588;48.102;19.682;2023-04-20T04:20:36;99370.75;;;4.64;100.00
70930;BME280;58588;48.102;19.682;2023-04-20T04:23:38;99377.59;;;4.66;100.00
70930;BME280;58588;48.102;19.682;2023-04-20T04:26:43;99379.16;;;4.69;100.00
70930;BME280;58588;48.102;19.682;2023-04-20T04:29:45;99381.81;;;4.69;100.00
70930;BME280;58588;48.102;19.682;2023-04-20T04:32:49;99385.84;;;4.73;100.00
70930;BME280;58588;48.102;19.682;2023-04-20T04:35:51;99390.75;;;4.77;100.00
70930;BME280;58588;48.102;19.682;2023-04-20T04:38:54;99388.13;;;4.86;100.00
70930;BME280;58588;48.102;19.682;2023-04-20T04:41:58;99392.03;;;4.73;100.00
70930;BME280;58588;48.102;19.682;2023-04-20T04:45:00;99393.19;;;4.89;100.00
70930;BME280;58588;48.102;19.682;2023-04-20T04:48:04;99392.59;;;4.95;100.00
70930;BME280;58588;48.102;19.682;2023-04-20T04:51:06;99397.38;;;4.91;100.00
70930;BME280;58588;48.102;19.682;2023-04-20T04:54:08;99406.16;;;5.01;100.00
70930;BME280;58588;48.102;19.682;2023-04-20T04:57:12;99396.31;;;5.02;100.00
70930;BME280;58588;48.102;19.682;2023-04-20T05:00:15;99403.19;;;5.22;100.00
70930;BME280;58588;48.102;19.682;2023-04-20T05:03:17;99414.94;;;5.29;100.00
70930;BME280;58588;48.102;19.682;2023-04-20T05:06:19;99410.31;;;5.40;100.00
70930;BME280;58588;48.102;19.682;2023-04-20T05:09:21;99412.63;;;5.52;100.00
70930;BME280;58588;48.102;19.682;2023-04-20T05:12:25;99418.97;;;5.77;100.00
70930;BME280;58588;48.102;19.682;2023-04-20T05:15:27;99424.38;;;5.85;100.00
70930;BME280;58588;48.102;19.682;2023-04-20T05:18:29;99415.66;;;6.01;100.00
70930;BME280;58588;48.102;19.682;2023-04-20T05:21:31;99418.06;;;6.12;100.00
70930;BME280;58588;48.102;19.682;2023-04-20T05:24:33;99410.41;;;6.26;100.00
70930;BME280;58588;48.102;19.682;2023-04-20T05:27:36;99408.66;;;6.42;100.00
70930;BME280;58588;48.102;19.682;2023-04-20T05:30:38;99409.22;;;6.62;100.00
70930;BME280;58588;48.102;19.682;2023-04-20T05:33:41;99406.41;;;6.72;100.00
70930;BME280;58588;48.102;19.682;2023-04-20T05:36:43;99406.94;;;6.84;100.00
70930;BME280;58588;48.102;19.682;2023-04-20T05:39:45;99406.78;;;7.02;100.00
70930;BME280;58588;48.102;19.682;2023-04-20T05:42:48;99408.16;;;7.14;100.00
70930;BME280;58588;48.102;19.682;2023-04-20T05:45:51;99412.84;;;7.36;100.00
70930;BME280;58588;48.102;19.682;2023-04-20T05:48:53;99418.88;;;7.55;100.00
70930;BME280;58588;48.102;19.682;2023-04-20T05:51:55;99413.66;;;7.77;100.00
70930;BME280;58588;48.102;19.682;2023-04-20T05:54:57;99423.34;;;8.03;100.00
70930;BME280;58588;48.102;19.682;2023-04-20T05:58:01;99416.59;;;8.40;100.00
70930;BME280;58588;48.102;19.682;2023-04-20T06:01:04;99414.25;;;8.68;100.00
70930;BME280;58588;48.102;19.682;2023-04-20T06:04:06;99415.53;;;8.80;100.00
70930;BME280;58588;48.102;19.682;2023-04-20T06:07:08;99415.03;;;9.07;100.00
70930;BME280;58588;48.102;19.682;2023-04-20T06:10:10;99417.84;;;9.14;100.00
70930;BME280;58588;48.102;19.682;2023-04-20T06:13:13;99415.31;;;9.35;100.00
70930;BME280;58588;48.102;19.682;2023-04-20T06:16:15;99420.16;;;9.63;100.00
70930;BME280;58588;48.102;19.682;2023-04-20T06:19:17;99417.63;;;9.84;100.00
70930;BME280;58588;48.102;19.682;2023-04-20T06:22:19;99424.69;;;10.00;100.00
70930;BME280;58588;48.102;19.682;2023-04-20T06:25:23;99425.78;;;10.43;100.00
70930;BME280;58588;48.102;19.682;2023-04-20T06:28:27;99409.53;;;10.73;100.00
70930;BME280;58588;48.102;19.682;2023-04-20T06:31:29;99404.66;;;10.98;100.00
70930;BME280;58588;48.102;19.682;2023-04-20T06:34:31;99404.88;;;11.18;100.00
70930;BME280;58588;48.102;19.682;2023-04-20T06:37:34;99402.94;;;11.55;100.00
70930;BME280;58588;48.102;19.682;2023-04-20T06:40:36;99390.63;;;11.73;100.00
70930;BME280;58588;48.102;19.682;2023-04-20T06:43:39;99394.94;;;11.89;100.00
70930;BME280;58588;48.102;19.682;2023-04-20T06:46:41;99396.31;;;12.07;100.00
70930;BME280;58588;48.102;19.682;2023-04-20T06:49:43;99397.56;;;12.45;93.63
70930;BME280;58588;48.102;19.682;2023-04-20T06:52:45;99397.81;;;12.57;99.25
70930;BME280;58588;48.102;19.682;2023-04-20T06:55:48;99394.59;;;12.81;89.92
70930;BME280;58588;48.102;19.682;2023-04-20T06:58:52;99400.69;;;12.97;85.90
70930;BME280;58588;48.102;19.682;2023-04-20T07:01:54;99399.06;;;13.16;84.88
70930;BME280;58588;48.102;19.682;2023-04-20T07:04:59;99400.41;;;13.46;82.92
70930;BME280;58588;48.102;19.682;2023-04-20T07:08:02;99400.41;;;13.59;82.54
70930;BME280;58588;48.102;19.682;2023-04-20T07:11:04;99394.56;;;13.96;77.10
70930;BME280;58588;48.102;19.682;2023-04-20T07:14:08;99400.56;;;14.17;80.96
70930;BME280;58588;48.102;19.682;2023-04-20T07:17:10;99405.78;;;14.12;71.45
70930;BME280;58588;48.102;19.682;2023-04-20T07:20:12;99402.69;;;14.15;72.29
70930;BME280;58588;48.102;19.682;2023-04-20T07:23:14;99408.22;;;14.60;72.20
70930;BME280;58588;48.102;19.682;2023-04-20T07:26:16;99412.91;;;14.85;74.86
70930;BME280;58588;48.102;19.682;2023-04-20T07:29:19;99415.38;;;15.31;67.99
70930;BME280;58588;48.102;19.682;2023-04-20T07:32:21;99404.75;;;15.86;67.85
70930;BME280;58588;48.102;19.682;2023-04-20T07:35:24;99405.13;;;16.15;67.71
70930;BME280;58588;48.102;19.682;2023-04-20T07:38:26;99405.81;;;16.28;61.36
70930;BME280;58588;48.102;19.682;2023-04-20T07:41:28;99410.97;;;15.93;59.76
70930;BME280;58588;48.102;19.682;2023-04-20T07:44:31;99402.09;;;15.79;58.60
70930;BME280;58588;48.102;19.682;2023-04-20T07:47:35;99401.78;;;16.13;58.59
70930;BME280;58588;48.102;19.682;2023-04-20T07:50:37;99404.41;;;16.01;59.26
70930;BME280;58588;48.102;19.682;2023-04-20T07:53:39;99410.94;;;16.18;61.03
70930;BME280;58588;48.102;19.682;2023-04-20T07:56:41;99405.69;;;16.60;62.01
70930;BME280;58588;48.102;19.682;2023-04-20T07:59:46;99406.69;;;16.84;63.70
70930;BME280;58588;48.102;19.682;2023-04-20T08:02:48;99405.81;;;17.02;57.91
70930;BME280;58588;48.102;19.682;2023-04-20T08:05:50;99405.25;;;16.81;56.81
70930;BME280;58588;48.102;19.682;2023-04-20T08:08:52;99412.28;;;16.52;54.38
70930;BME280;58588;48.102;19.682;2023-04-20T08:11:54;99404.91;;;17.08;54.23
70930;BME280;58588;48.102;19.682;2023-04-20T08:14:57;99404.13;;;17.19;54.77
70930;BME280;58588;48.102;19.682;2023-04-20T08:18:03;99405.84;;;17.44;50.09
70930;BME280;58588;48.102;19.682;2023-04-20T08:21:05;99395.00;;;17.55;54.74
70930;BME280;58588;48.102;19.682;2023-04-20T08:24:08;99397.75;;;17.25;51.50
70930;BME280;58588;48.102;19.682;2023-04-20T08:27:10;99385.28;;;16.88;51.37
70930;BME280;58588;48.102;19.682;2023-04-20T08:30:13;99392.50;;;17.12;51.38
70930;BME280;58588;48.102;19.682;2023-04-20T08:33:15;99392.81;;;17.76;51.19
70930;BME280;58588;48.102;19.682;2023-04-20T08:36:18;99388.09;;;18.06;49.78
70930;BME280;58588;48.102;19.682;2023-04-20T08:39:21;99395.78;;;18.21;54.27
70930;BME280;58588;48.102;19.682;2023-04-20T08:42:23;99386.97;;;18.66;53.43
70930;BME280;58588;48.102;19.682;2023-04-20T08:45:27;99385.78;;;18.50;50.22
70930;BME280;58588;48.102;19.682;2023-04-20T08:48:33;99380.88;;;18.64;49.74
70930;BME280;58588;48.102;19.682;2023-04-20T08:51:35;99385.38;;;18.82;47.36
70930;BME280;58588;48.102;19.682;2023-04-20T08:54:38;99371.69;;;19.22;48.05
70930;BME280;58588;48.102;19.682;2023-04-20T08:57:40;99369.81;;;19.39;46.63
70930;BME280;58588;48.102;19.682;2023-04-20T09:00:47;99373.78;;;19.32;50.22
70930;BME280;58588;48.102;19.682;2023-04-20T09:03:49;99375.28;;;18.82;45.54
70930;BME280;58588;48.102;19.682;2023-04-20T09:06:52;99378.69;;;18.49;44.69
70930;BME280;58588;48.102;19.682;2023-04-20T09:09:55;99380.78;;;19.11;46.08
70930;BME280;58588;48.102;19.682;2023-04-20T09:12:57;99374.97;;;19.52;43.84
70930;BME280;58588;48.102;19.682;2023-04-20T09:16:10;99370.72;;;19.28;43.60
70930;BME280;58588;48.102;19.682;2023-04-20T09:19:13;99369.25;;;19.54;44.86
70930;BME280;58588;48.102;19.682;2023-04-20T09:22:15;99374.53;;;19.27;42.54
70930;BME280;58588;48.102;19.682;2023-04-20T09:25:17;99367.34;;;19.38;44.92
70930;BME280;58588;48.102;19.682;2023-04-20T09:28:20;99375.31;;;19.11;45.05
70930;BME280;58588;48.102;19.682;2023-04-20T09:31:24;99367.50;;;18.74;46.49
70930;BME280;58588;48.102;19.682;2023-04-20T09:34:26;99371.19;;;18.56;46.87
70930;BME280;58588;48.102;19.682;2023-04-20T09:37:28;99373.63;;;18.29;44.76
70930;BME280;58588;48.102;19.682;2023-04-20T09:40:31;99362.38;;;18.78;45.46
70930;BME280;58588;48.102;19.682;2023-04-20T09:43:34;99357.31;;;19.43;45.68
70930;BME280;58588;48.102;19.682;2023-04-20T09:46:39;99365.75;;;20.26;45.94
70930;BME280;58588;48.102;19.682;2023-04-20T09:49:43;99359.75;;;19.90;43.16
70930;BME280;58588;48.102;19.682;2023-04-20T09:52:45;99358.66;;;19.12;44.48
70930;BME280;58588;48.102;19.682;2023-04-20T09:55:50;99357.34;;;19.60;45.20
70930;BME280;58588;48.102;19.682;2023-04-20T09:58:52;99353.53;;;19.95;44.71
70930;BME280;58588;48.102;19.682;2023-04-20T10:01:56;99346.75;;;19.81;43.64
70930;BME280;58588;48.102;19.682;2023-04-20T10:04:58;99345.22;;;19.56;44.12
70930;BME280;58588;48.102;19.682;2023-04-20T10:08:02;99340.84;;;19.72;43.03
70930;BME280;58588;48.102;19.682;2023-04-20T10:11:04;99345.44;;;19.21;43.74
70930;BME280;58588;48.102;19.682;2023-04-20T10:14:14;99355.56;;;18.92;46.31
70930;BME280;58588;48.102;19.682;2023-04-20T10:17:29;99339.72;;;19.22;47.63
70930;BME280;58588;48.102;19.682;2023-04-20T10:20:31;99348.16;;;19.66;44.44
70930;BME280;58588;48.102;19.682;2023-04-20T10:23:33;99338.13;;;19.72;47.75
70930;BME280;58588;48.102;19.682;2023-04-20T10:26:36;99339.78;;;20.28;49.93
70930;BME280;58588;48.102;19.682;2023-04-20T10:29:38;99330.97;;;21.41;48.15
70930;BME280;58588;48.102;19.682;2023-04-20T10:32:41;99338.25;;;22.32;41.51
70930;BME280;58588;48.102;19.682;2023-04-20T10:35:46;99334.47;;;22.53;40.15
70930;BME280;58588;48.102;19.682;2023-04-20T10:38:49;99332.00;;;22.04;40.48
70930;BME280;58588;48.102;19.682;2023-04-20T10:41:52;99336.63;;;21.29;41.17
70930;BME280;58588;48.102;19.682;2023-04-20T10:44:55;99324.50;;;21.25;42.16
70930;BME280;58588;48.102;19.682;2023-04-20T10:48:06;99330.09;;;21.68;44.59
70930;BME280;58588;48.102;19.682;2023-04-20T10:51:08;99328.81;;;21.21;42.11
70930;BME280;58588;48.102;19.682;2023-04-20T10:54:10;99329.94;;;20.49;43.60
70930;BME280;58588;48.102;19.682;2023-04-20T10:57:15;99323.16;;;20.35;43.92
70930;BME280;58588;48.102;19.682;2023-04-20T11:00:18;99320.59;;;19.90;43.77
70930;BME280;58588;48.102;19.682;2023-04-20T11:03:22;99327.59;;;19.97;44.92
70930;BME280;58588;48.102;19.682;2023-04-20T11:06:24;99322.69;;;19.66;45.61
70930;BME280;58588;48.102;19.682;2023-04-20T11:09:27;99323.69;;;19.76;46.64
70930;BME280;58588;48.102;19.682;2023-04-20T11:12:37;99317.22;;;19.83;47.07
70930;BME280;58588;48.102;19.682;2023-04-20T11:15:40;99315.50;;;19.60;45.97
70930;BME280;58588;48.102;19.682;2023-04-20T11:18:49;99306.63;;;20.69;48.96
70930;BME280;58588;48.102;19.682;2023-04-20T11:21:54;99305.16;;;21.74;43.92
70930;BME280;58588;48.102;19.682;2023-04-20T11:25:02;99308.06;;;21.57;45.92
70930;BME280;58588;48.102;19.682;2023-04-20T11:28:06;99306.72;;;22.50;41.56
70930;BME280;58588;48.102;19.682;2023-04-20T11:31:15;99303.31;;;22.27;42.60
70930;BME280;58588;48.102;19.682;2023-04-20T11:34:19;99299.66;;;22.11;43.31
70930;BME280;58588;48.102;19.682;2023-04-20T11:37:22;99300.28;;;21.81;43.96
70930;BME280;58588;48.102;19.682;2023-04-20T11:40:24;99291.53;;;21.20;44.52
70930;BME280;58588;48.102;19.682;2023-04-20T11:43:26;99297.19;;;22.10;43.83
70930;BME280;58588;48.102;19.682;2023-04-20T11:46:33;99293.69;;;22.20;40.90
70930;BME280;58588;48.102;19.682;2023-04-20T11:49:37;99295.03;;;22.17;39.07
70930;BME280;58588;48.102;19.682;2023-04-20T11:52:39;99296.47;;;22.98;38.05
70930;BME280;58588;48.102;19.682;2023-04-20T11:55:41;99292.28;;;22.17;40.17
70930;BME280;58588;48.102;19.682;2023-04-20T11:58:43;99290.25;;;22.50;40.33
70930;BME280;58588;48.102;19.682;2023-04-20T12:01:45;99290.13;;;22.24;42.10
70930;BME280;58588;48.102;19.682;2023-04-20T12:04:49;99289.22;;;21.34;42.02
70930;BME280;58588;48.102;19.682;2023-04-20T12:07:51;99288.63;;;22.01;46.13
70930;BME280;58588;48.102;19.682;2023-04-20T12:10:53;99288.78;;;23.35;42.48
70930;BME280;58588;48.102;19.682;2023-04-20T12:13:55;99291.28;;;23.67;40.47
70930;BME280;58588;48.102;19.682;2023-04-20T12:16:58;99288.53;;;22.33;40.61
70930;BME280;58588;48.102;19.682;2023-04-20T12:20:01;99291.25;;;21.86;41.76
70930;BME280;58588;48.102;19.682;2023-04-20T12:23:04;99283.41;;;20.32;42.53
70930;BME280;58588;48.102;19.682;2023-04-20T12:26:06;99284.22;;;20.50;45.02
70930;BME280;58588;48.102;19.682;2023-04-20T12:29:08;99282.25;;;20.94;44.27
70930;BME280;58588;48.102;19.682;2023-04-20T12:32:10;99291.47;;;20.61;41.60
70930;BME280;58588;48.102;19.682;2023-04-20T12:35:14;99286.31;;;20.65;43.68
70930;BME280;58588;48.102;19.682;2023-04-20T12:38:16;99287.41;;;21.18;46.91
70930;BME280;58588;48.102;19.682;2023-04-20T12:41:18;99290.16;;;22.29;43.51
70930;BME280;58588;48.102;19.682;2023-04-20T12:44:22;99282.34;;;22.68;44.09
70930;BME280;58588;48.102;19.682;2023-04-20T12:47:24;99279.03;;;22.61;40.13
70930;BME280;58588;48.102;19.682;2023-04-20T12:50:27;99274.75;;;23.06;38.63
70930;BME280;58588;48.102;19.682;2023-04-20T12:53:29;99260.47;;;23.30;40.01
70930;BME280;58588;48.102;19.682;2023-04-20T12:56:31;99265.91;;;24.01;38.13
70930;BME280;58588;48.102;19.682;2023-04-20T12:59:33;99257.50;;;24.91;40.69
70930;BME280;58588;48.102;19.682;2023-04-20T13:02:35;99263.56;;;24.44;40.29
70930;BME280;58588;48.102;19.682;2023-04-20T13:05:39;99254.59;;;24.72;41.88
70930;BME280;58588;48.102;19.682;2023-04-20T13:08:41;99251.75;;;24.88;40.83
70930;BME280;58588;48.102;19.682;2023-04-20T13:11:43;99239.53;;;24.60;37.26
70930;BME280;58588;48.102;19.682;2023-04-20T13:14:46;99249.56;;;24.35;36.78
70930;BME280;58588;48.102;19.682;2023-04-20T13:17:48;99243.66;;;23.26;38.15
70930;BME280;58588;48.102;19.682;2023-04-20T13:20:51;99239.41;;;21.95;40.42
70930;BME280;58588;48.102;19.682;2023-04-20T13:23:53;99244.72;;;21.64;41.88
70930;BME280;58588;48.102;19.682;2023-04-20T13:26:56;99235.91;;;21.25;41.90
70930;BME280;58588;48.102;19.682;2023-04-20T13:29:58;99238.53;;;21.09;42.10
70930;BME280;58588;48.102;19.682;2023-04-20T13:33:00;99241.47;;;21.30;42.76
70930;BME280;58588;48.102;19.682;2023-04-20T13:36:04;99245.53;;;21.27;42.65
70930;BME280;58588;48.102;19.682;2023-04-20T13:39:06;99242.31;;;21.30;42.09
70930;BME280;58588;48.102;19.682;2023-04-20T13:42:09;99237.66;;;21.04;46.06
70930;BME280;58588;48.102;19.682;2023-04-20T13:45:11;99242.94;;;20.83;50.18
70930;BME280;58588;48.102;19.682;2023-04-20T13:48:13;99236.69;;;20.88;51.71
70930;BME280;58588;48.102;19.682;2023-04-20T13:51:17;99252.28;;;21.42;51.32
70930;BME280;58588;48.102;19.682;2023-04-20T13:54:19;99246.34;;;22.02;47.02
70930;BME280;58588;48.102;19.682;2023-04-20T13:57:21;99253.84;;;21.75;42.23
70930;BME280;58588;48.102;19.682;2023-04-20T14:00:23;99247.28;;;21.38;43.65
70930;BME280;58588;48.102;19.682;2023-04-20T14:03:25;99252.88;;;21.49;44.59
70930;BME280;58588;48.102;19.682;2023-04-20T14:06:29;99257.78;;;21.47;43.01
70930;BME280;58588;48.102;19.682;2023-04-20T14:09:31;99249.81;;;21.45;42.68
70930;BME280;58588;48.102;19.682;2023-04-20T14:12:33;99251.66;;;20.80;41.61
70930;BME280;58588;48.102;19.682;2023-04-20T14:15:35;99254.88;;;20.72;42.71
70930;BME280;58588;48.102;19.682;2023-04-20T14:18:38;99247.13;;;20.42;44.13
70930;BME280;58588;48.102;19.682;2023-04-20T14:21:42;99245.81;;;20.23;45.26
70930;BME280;58588;48.102;19.682;2023-04-20T14:24:46;99251.16;;;20.56;42.59
70930;BME280;58588;48.102;19.682;2023-04-20T14:27:48;99247.72;;;20.93;44.53
70930;BME280;58588;48.102;19.682;2023-04-20T14:30:50;99256.50;;;21.59;41.87
70930;BME280;58588;48.102;19.682;2023-04-20T14:33:52;99258.22;;;21.71;41.67
70930;BME280;58588;48.102;19.682;2023-04-20T14:36:56;99253.91;;;22.27;42.29
70930;BME280;58588;48.102;19.682;2023-04-20T14:39:58;99262.66;;;23.22;42.26
70930;BME280;58588;48.102;19.682;2023-04-20T14:43:00;99249.69;;;23.79;38.70
70930;BME280;58588;48.102;19.682;2023-04-20T14:46:04;99251.91;;;23.72;38.67
70930;BME280;58588;48.102;19.682;2023-04-20T14:49:06;99246.91;;;24.64;36.02
70930;BME280;58588;48.102;19.682;2023-04-20T14:52:09;99249.94;;;24.68;37.16
70930;BME280;58588;48.102;19.682;2023-04-20T14:55:11;99252.69;;;25.46;36.04
70930;BME280;58588;48.102;19.682;2023-04-20T14:58:16;99249.50;;;24.40;36.00
70930;BME280;58588;48.102;19.682;2023-04-20T15:01:18;99249.16;;;25.41;34.07
70930;BME280;58588;48.102;19.682;2023-04-20T15:04:21;99255.00;;;26.45;33.33
70930;BME280;58588;48.102;19.682;2023-04-20T15:07:24;99252.78;;;27.04;30.43
70930;BME280;58588;48.102;19.682;2023-04-20T15:10:27;99251.13;;;27.03;30.10
70930;BME280;58588;48.102;19.682;2023-04-20T15:13:30;99244.59;;;27.64;30.05
70930;BME280;58588;48.102;19.682;2023-04-20T15:16:32;99243.31;;;27.42;30.58
70930;BME280;58588;48.102;19.682;2023-04-20T15:19:34;99254.44;;;26.19;31.42
70930;BME280;58588;48.102;19.682;2023-04-20T15:22:37;99248.50;;;26.74;31.58
70930;BME280;58588;48.102;19.682;2023-04-20T15:25:39;99258.03;;;28.03;28.46
70930;BME280;58588;48.102;19.682;2023-04-20T15:28:41;99254.00;;;27.49;28.71
70930;BME280;58588;48.102;19.682;2023-04-20T15:31:44;99256.97;;;28.82;27.78
70930;BME280;58588;48.102;19.682;2023-04-20T15:34:46;99253.06;;;29.41;27.23
70930;BME280;58588;48.102;19.682;2023-04-20T15:37:50;99261.34;;;30.65;25.30
70930;BME280;58588;48.102;19.682;2023-04-20T15:40:52;99270.25;;;31.20;25.08
70930;BME280;58588;48.102;19.682;2023-04-20T15:43:54;99263.34;;;30.82;24.68
70930;BME280;58588;48.102;19.682;2023-04-20T15:46:56;99255.50;;;29.88;26.07
70930;BME280;58588;48.102;19.682;2023-04-20T15:49:59;99258.84;;;28.59;27.02
70930;BME280;58588;48.102;19.682;2023-04-20T15:53:04;99256.19;;;28.53;27.13
70930;BME280;58588;48.102;19.682;2023-04-20T15:56:07;99257.63;;;26.74;29.86